Time;durP1;ratioP1;P1;durP2;ratioP2;P2;SDS_P1;SDS_P2;PMS_P1;PMS_P2;Temp;Humidity;BMP_temperature;BMP_pressure;BME280_temperature;BME280_humidity;BME280_pressure;Samples;Min_cycle;Max_cycle;Signal;HPM_P1;HPM_P2
2023/12/03 00:02:21;;;;;;;12.35;4.75;;;;;;;;;;4986404;28;100598;-72
2023/12/03 00:04:50;;;;;;;10.05;4.68;;;;;;;;;;4985721;28;99026;-72
2023/12/03 00:07:16;;;;;;;10.38;4.38;;;;;;;;;;4986536;28;98464;-72
2023/12/03 00:09:44;;;;;;;11.25;5.05;;;;;;;;;;4985686;28;98843;-71
2023/12/03 00:12:10;;;;;;;10.52;4.80;;;;;;;;;;4986670;28;99627;-72
2023/12/03 00:14:37;;;;;;;10.48;4.65;;;;;;;;;;4989585;28;98924;-72
2023/12/03 00:17:04;;;;;;;11.88;4.75;;;;;;;;;;4985967;28;99740;-71
2023/12/03 00:19:30;;;;;;;11.60;4.65;;;;;;;;;;4967842;28;98987;-67
2023/12/03 00:21:57;;;;;;;13.05;4.43;;;;;;;;;;4986105;28;100135;-70
2023/12/03 00:24:23;;;;;;;11.85;4.82;;;;;;;;;;4984899;28;99958;-71
2023/12/03 00:26:50;;;;;;;10.18;4.68;;;;;;;;;;4986921;28;98995;-71
2023/12/03 00:29:16;;;;;;;10.77;4.75;;;;;;;;;;5005883;28;100269;-71
2023/12/03 00:31:43;;;;;;;9.65;4.90;;;;;;;;;;5004471;27;100289;-71
2023/12/03 00:34:09;;;;;;;10.45;4.80;;;;;;;;;;5005750;28;98485;-72
2023/12/03 00:36:36;;;;;;;10.43;5.00;;;;;;;;;;5008969;27;99300;-72
2023/12/03 00:39:03;;;;;;;11.35;4.97;;;;;;;;;;5006397;27;99157;-72
2023/12/03 00:41:30;;;;;;;10.40;4.78;;;;;;;;;;5005155;28;98767;-72
2023/12/03 00:43:56;;;;;;;10.73;5.00;;;;;;;;;;5004865;28;103738;-72
2023/12/03 00:46:23;;;;;;;11.02;5.00;;;;;;;;;;5005436;28;98947;-72
2023/12/03 00:48:49;;;;;;;12.88;5.03;;;;;;;;;;5005160;28;100122;-72
2023/12/03 00:51:16;;;;;;;11.80;5.20;;;;;;;;;;5005223;28;99156;-72
2023/12/03 00:53:42;;;;;;;12.80;5.55;;;;;;;;;;5004654;28;98930;-71
2023/12/03 00:56:09;;;;;;;11.25;4.97;;;;;;;;;;5008078;28;99950;-71
2023/12/03 00:58:35;;;;;;;10.75;4.88;;;;;;;;;;4994828;28;98593;-72
2023/12/03 01:01:02;;;;;;;10.60;4.82;;;;;;;;;;4985469;28;99107;-71
2023/12/03 01:03:29;;;;;;;11.50;5.30;;;;;;;;;;4984522;28;100261;-72
2023/12/03 01:05:56;;;;;;;14.02;5.68;;;;;;;;;;4966816;28;99212;-71
2023/12/03 01:08:22;;;;;;;12.68;5.68;;;;;;;;;;4985250;28;98952;-72
2023/12/03 01:10:49;;;;;;;11.05;5.05;;;;;;;;;;4984467;28;100260;-72
2023/12/03 01:13:15;;;;;;;12.13;5.18;;;;;;;;;;4984991;28;99960;-72
2023/12/03 01:15:46;;;;;;;11.27;5.20;;;;;;;;;;4965501;28;100855;-71
2023/12/03 01:18:12;;;;;;;13.13;5.97;;;;;;;;;;4969730;28;99480;-74
2023/12/03 01:20:39;;;;;;;11.30;5.13;;;;;;;;;;4984882;28;99416;-72
2023/12/03 01:23:06;;;;;;;12.48;5.25;;;;;;;;;;4984573;28;99267;-72
2023/12/03 01:25:32;;;;;;;11.60;5.13;;;;;;;;;;4984150;28;98757;-71
2023/12/03 01:27:59;;;;;;;12.35;5.32;;;;;;;;;;4984935;28;99975;-71
2023/12/03 01:30:25;;;;;;;12.07;5.22;;;;;;;;;;5004148;28;98523;-71
2023/12/03 01:32:52;;;;;;;11.77;5.43;;;;;;;;;;5004761;27;98619;-71
2023/12/03 01:35:18;;;;;;;12.43;5.22;;;;;;;;;;5004378;28;100478;-71
2023/12/03 01:37:45;;;;;;;11.45;5.00;;;;;;;;;;5002547;28;101109;-71
2023/12/03 01:40:11;;;;;;;11.55;4.93;;;;;;;;;;4995743;28;98955;-71
2023/12/03 01:42:38;;;;;;;11.75;5.40;;;;;;;;;;5004102;28;99058;-71
2023/12/03 01:45:05;;;;;;;13.38;5.75;;;;;;;;;;5004279;28;98675;-72
2023/12/03 01:47:32;;;;;;;14.55;5.60;;;;;;;;;;5004088;28;100225;-70
2023/12/03 01:49:59;;;;;;;;;;;;;;;;;;5004345;28;100065;-71
2023/12/03 01:52:25;;;;;;;12.75;5.28;;;;;;;;;;5005971;28;99044;-71
2023/12/03 01:54:52;;;;;;;12.80;5.18;;;;;;;;;;5004713;28;99859;-71
2023/12/03 01:57:19;;;;;;;13.20;5.50;;;;;;;;;;4992489;28;99720;-71
2023/12/03 01:59:46;;;;;;;10.93;5.10;;;;;;;;;;4984000;28;98742;-72
2023/12/03 02:02:12;;;;;;;11.82;5.43;;;;;;;;;;4986780;28;99696;-71
2023/12/03 02:04:39;;;;;;;11.63;5.30;;;;;;;;;;4983996;28;99321;-71
2023/12/03 02:07:06;;;;;;;12.63;5.28;;;;;;;;;;4984384;28;98857;-72
2023/12/03 02:09:33;;;;;;;13.90;5.68;;;;;;;;;;4982825;28;100644;-72
2023/12/03 02:11:59;;;;;;;15.23;5.50;;;;;;;;;;4984113;28;98481;-71
2023/12/03 02:14:25;;;;;;;12.95;5.60;;;;;;;;;;4984248;28;98965;-71
2023/12/03 02:16:52;;;;;;;13.68;5.63;;;;;;;;;;4983284;28;100191;-72
2023/12/03 02:19:18;;;;;;;11.98;5.15;;;;;;;;;;4985002;28;97847;-72
2023/12/03 02:21:45;;;;;;;12.02;5.47;;;;;;;;;;4982960;28;98502;-72
2023/12/03 02:24:12;;;;;;;11.82;5.13;;;;;;;;;;4987114;28;100459;-72
2023/12/03 02:26:38;;;;;;;13.35;5.63;;;;;;;;;;4983241;28;99965;-72
2023/12/03 02:29:05;;;;;;;12.70;5.90;;;;;;;;;;4991646;28;100562;-72
2023/12/03 02:31:31;;;;;;;12.55;5.35;;;;;;;;;;5003112;28;98778;-71
2023/12/03 02:34:03;;;;;;;14.25;5.80;;;;;;;;;;5003867;28;100286;-72
2023/12/03 02:36:30;;;;;;;11.90;5.45;;;;;;;;;;5003065;27;99135;-71
2023/12/03 02:38:56;;;;;;;11.82;5.53;;;;;;;;;;5003705;27;98907;-71
2023/12/03 02:41:23;;;;;;;12.95;5.82;;;;;;;;;;5003059;28;99068;-72
2023/12/03 02:43:49;;;;;;;11.95;5.57;;;;;;;;;;4984220;28;98638;-72
2023/12/03 02:46:16;;;;;;;12.65;5.45;;;;;;;;;;5006556;28;98876;-72
2023/12/03 02:48:42;;;;;;;14.55;5.90;;;;;;;;;;5003177;28;100178;-72
2023/12/03 02:51:09;;;;;;;16.08;5.68;;;;;;;;;;5002559;28;99655;-72
2023/12/03 02:53:36;;;;;;;19.08;6.07;;;;;;;;;;5003133;28;100227;-71
2023/12/03 02:56:03;;;;;;;13.88;5.65;;;;;;;;;;4989307;28;100123;-71
2023/12/03 02:58:29;;;;;;;10.70;5.32;;;;;;;;;;4983035;28;99137;-72
2023/12/03 03:00:56;;;;;;;13.07;5.45;;;;;;;;;;4983503;28;98697;-71
2023/12/03 03:03:22;;;;;;;13.60;6.35;;;;;;;;;;4982924;28;99406;-72
2023/12/03 03:05:49;;;;;;;12.68;5.75;;;;;;;;;;4969518;28;98639;-71
2023/12/03 03:08:15;;;;;;;14.45;6.22;;;;;;;;;;4987444;28;99473;-71
2023/12/03 03:10:42;;;;;;;14.45;5.72;;;;;;;;;;4986693;28;98593;-71
2023/12/03 03:13:08;;;;;;;14.00;5.95;;;;;;;;;;4986984;28;98984;-71
2023/12/03 03:15:35;;;;;;;11.82;5.78;;;;;;;;;;4984400;28;101238;-71
2023/12/03 03:18:02;;;;;;;11.73;5.53;;;;;;;;;;4986532;28;98833;-71
2023/12/03 03:20:29;;;;;;;11.73;5.63;;;;;;;;;;4999320;28;99933;-72
2023/12/03 03:22:56;;;;;;;12.45;5.97;;;;;;;;;;5006474;28;101120;-72
2023/12/03 03:25:22;;;;;;;13.38;5.68;;;;;;;;;;5006252;28;98833;-73
2023/12/03 03:27:49;;;;;;;13.20;5.65;;;;;;;;;;5008294;28;99916;-71
2023/12/03 03:30:15;;;;;;;11.90;5.78;;;;;;;;;;5006029;28;106073;-72
2023/12/03 03:32:42;;;;;;;12.13;5.70;;;;;;;;;;5006993;28;99129;-71
2023/12/03 03:35:08;;;;;;;13.88;5.40;;;;;;;;;;5005736;28;99016;-71
2023/12/03 03:37:35;;;;;;;11.85;5.63;;;;;;;;;;5005020;27;98772;-71
2023/12/03 03:40:01;;;;;;;11.93;5.68;;;;;;;;;;5006097;28;99958;-71
2023/12/03 03:42:28;;;;;;;12.27;6.20;;;;;;;;;;5006092;28;100120;-71
2023/12/03 03:44:55;;;;;;;11.60;5.45;;;;;;;;;;5005666;28;98882;-71
2023/12/03 03:47:21;;;;;;;12.20;5.60;;;;;;;;;;5006112;28;99923;-71
2023/12/03 03:49:48;;;;;;;10.75;5.28;;;;;;;;;;5007734;28;100399;-71
2023/12/03 03:52:14;;;;;;;13.13;5.75;;;;;;;;;;5005776;28;100325;-71
2023/12/03 03:54:41;;;;;;;12.55;5.85;;;;;;;;;;4992344;28;99057;-71
2023/12/03 03:57:08;;;;;;;11.77;5.53;;;;;;;;;;4986647;28;98279;-71
2023/12/03 03:59:34;;;;;;;11.90;5.40;;;;;;;;;;4985359;28;99212;-71
2023/12/03 04:02:01;;;;;;;11.63;5.65;;;;;;;;;;4986327;28;100587;-71
2023/12/03 04:04:27;;;;;;;11.75;5.57;;;;;;;;;;4985234;28;99201;-71
2023/12/03 04:06:54;;;;;;;11.10;5.25;;;;;;;;;;4985540;28;100626;-72
2023/12/03 04:09:20;;;;;;;14.07;5.38;;;;;;;;;;4985503;28;100015;-72
2023/12/03 04:11:47;;;;;;;12.38;5.53;;;;;;;;;;4988877;28;98763;-71
2023/12/03 04:14:19;;;;;;;11.02;5.40;;;;;;;;;;4985321;28;99060;-72
2023/12/03 04:16:45;;;;;;;10.80;4.95;;;;;;;;;;4983576;28;98696;-71
2023/12/03 04:19:12;;;;;;;10.82;5.45;;;;;;;;;;4985726;28;100258;-71
2023/12/03 04:21:39;;;;;;;13.35;5.10;;;;;;;;;;4984462;28;98472;-71
2023/12/03 04:24:05;;;;;;;16.15;5.82;;;;;;;;;;4986140;28;98772;-71
2023/12/03 04:26:32;;;;;;;12.38;5.45;;;;;;;;;;4985754;28;100132;-72
2023/12/03 04:28:58;;;;;;;16.23;5.72;;;;;;;;;;4984619;28;100061;-71
2023/12/03 04:31:26;;;;;;;10.73;5.18;;;;;;;;;;5004653;27;98848;-71
2023/12/03 04:33:54;;;;;;;13.90;5.65;;;;;;;;;;5007712;28;100201;-72
2023/12/03 04:36:24;;;;;;;11.38;5.90;;;;;;;;;;5005415;28;99758;-72
2023/12/03 04:38:51;;;;;;;11.30;5.47;;;;;;;;;;5005465;28;99782;-71
2023/12/03 04:41:18;;;;;;;10.52;5.60;;;;;;;;;;5004606;28;99202;-72
2023/12/03 04:43:45;;;;;;;10.13;5.25;;;;;;;;;;5004846;28;98889;-71
2023/12/03 04:46:12;;;;;;;10.70;5.35;;;;;;;;;;4988363;28;98729;-71
2023/12/03 04:48:40;;;;;;;11.07;5.68;;;;;;;;;;5005011;28;99002;-71
2023/12/03 04:51:07;;;;;;;;;;;;;;;;;;5006187;28;99020;-71
2023/12/03 04:53:33;;;;;;;11.20;5.78;;;;;;;;;;4991818;28;128632;-70
2023/12/03 04:55:59;;;;;;;9.93;5.15;;;;;;;;;;4966737;28;99161;-71
2023/12/03 04:58:26;;;;;;;10.80;5.40;;;;;;;;;;4984739;28;99917;-71
2023/12/03 05:00:55;;;;;;;10.10;5.38;;;;;;;;;;4984924;28;99338;-72
2023/12/03 05:03:22;;;;;;;10.00;5.25;;;;;;;;;;4984868;28;98769;-71
2023/12/03 05:05:49;;;;;;;10.70;5.40;;;;;;;;;;4984080;28;99220;-71
2023/12/03 05:08:15;;;;;;;10.32;5.22;;;;;;;;;;4984245;28;99210;-71
2023/12/03 05:10:41;;;;;;;10.63;5.60;;;;;;;;;;4985393;28;98913;-71
2023/12/03 05:13:08;;;;;;;10.20;5.38;;;;;;;;;;4984866;28;98473;-71
2023/12/03 05:15:35;;;;;;;10.68;5.22;;;;;;;;;;4986116;28;100193;-71
2023/12/03 05:18:01;;;;;;;8.77;4.72;;;;;;;;;;4984205;28;99850;-72
2023/12/03 05:20:28;;;;;;;10.73;5.53;;;;;;;;;;4983689;28;100157;-71
2023/12/03 05:22:54;;;;;;;10.25;5.07;;;;;;;;;;4985082;28;99102;-72
2023/12/03 05:25:21;;;;;;;10.48;4.78;;;;;;;;;;4984728;28;99466;-71
2023/12/03 05:27:47;;;;;;;10.73;5.30;;;;;;;;;;4983652;28;98877;-71
2023/12/03 05:30:14;;;;;;;9.93;5.20;;;;;;;;;;4994445;28;99129;-71
2023/12/03 05:32:41;;;;;;;9.48;4.80;;;;;;;;;;5004679;28;100177;-71
2023/12/03 05:35:07;;;;;;;10.05;4.93;;;;;;;;;;5004253;28;99617;-72
2023/12/03 05:37:34;;;;;;;10.00;5.07;;;;;;;;;;5006799;27;98485;-71
2023/12/03 05:40:00;;;;;;;10.27;5.28;;;;;;;;;;5003517;28;100385;-72
2023/12/03 05:42:28;;;;;;;9.77;4.90;;;;;;;;;;5003996;28;99378;-71
2023/12/03 05:44:54;;;;;;;9.40;4.65;;;;;;;;;;5004451;28;99651;-71
2023/12/03 05:47:21;;;;;;;10.43;5.43;;;;;;;;;;5004444;28;99343;-71
2023/12/03 05:49:47;;;;;;;9.73;5.10;;;;;;;;;;5003486;28;98490;-70
2023/12/03 05:52:14;;;;;;;9.75;4.50;;;;;;;;;;4988472;28;98933;-71
2023/12/03 05:54:44;;;;;;;10.35;5.20;;;;;;;;;;4984571;28;100074;-70
2023/12/03 05:57:10;;;;;;;9.40;4.50;;;;;;;;;;4984201;28;98690;-70
2023/12/03 05:59:37;;;;;;;9.65;4.70;;;;;;;;;;4986704;28;98645;-69
2023/12/03 06:02:04;;;;;;;10.40;4.60;;;;;;;;;;4984499;28;98525;-70
2023/12/03 06:04:31;;;;;;;9.25;4.53;;;;;;;;;;4966354;28;99197;-70
2023/12/03 06:06:58;;;;;;;10.13;4.70;;;;;;;;;;4983282;28;101200;-70
2023/12/03 06:09:24;;;;;;;9.02;4.80;;;;;;;;;;4983779;28;99079;-69
2023/12/03 06:11:51;;;;;;;9.45;4.80;;;;;;;;;;4984312;28;98888;-70
2023/12/03 06:14:17;;;;;;;8.93;4.40;;;;;;;;;;4983946;28;99288;-70
2023/12/03 06:16:44;;;;;;;9.68;4.70;;;;;;;;;;4983467;28;98811;-70
2023/12/03 06:19:10;;;;;;;8.57;4.43;;;;;;;;;;4983728;28;104841;-70
2023/12/03 06:21:37;;;;;;;12.57;5.25;;;;;;;;;;4986021;28;100008;-70
2023/12/03 06:24:05;;;;;;;9.15;4.30;;;;;;;;;;4984581;28;99017;-71
2023/12/03 06:26:32;;;;;;;9.18;4.40;;;;;;;;;;4965428;28;101766;-70
2023/12/03 06:28:58;;;;;;;9.50;4.40;;;;;;;;;;4983938;28;98982;-70
2023/12/03 06:31:25;;;;;;;10.40;4.63;;;;;;;;;;5002679;28;100062;-70
2023/12/03 06:33:51;;;;;;;9.07;4.32;;;;;;;;;;5003594;28;99208;-71
2023/12/03 06:36:18;;;;;;;10.45;5.00;;;;;;;;;;5003587;28;98906;-70
2023/12/03 06:38:45;;;;;;;10.25;4.75;;;;;;;;;;5003733;27;98868;-71
2023/12/03 06:41:11;;;;;;;12.52;5.47;;;;;;;;;;5002801;28;100727;-70
2023/12/03 06:43:38;;;;;;;10.23;4.43;;;;;;;;;;5006162;28;99026;-69
2023/12/03 06:46:04;;;;;;;9.63;4.30;;;;;;;;;;5003078;28;100395;-70
2023/12/03 06:48:31;;;;;;;8.55;4.07;;;;;;;;;;5004317;28;97741;-70
2023/12/03 06:50:57;;;;;;;9.55;4.50;;;;;;;;;;4985998;28;99078;-70
2023/12/03 06:53:24;;;;;;;11.13;4.70;;;;;;;;;;4983020;28;100445;-70
2023/12/03 06:55:50;;;;;;;11.00;4.57;;;;;;;;;;4982126;28;99925;-69
2023/12/03 06:58:17;;;;;;;10.07;4.93;;;;;;;;;;4983816;28;101401;-70
2023/12/03 07:00:43;;;;;;;9.90;4.82;;;;;;;;;;4983178;28;99228;-70
2023/12/03 07:03:10;;;;;;;9.80;4.53;;;;;;;;;;4986674;28;99272;-70
2023/12/03 07:05:38;;;;;;;10.20;5.00;;;;;;;;;;4982629;28;100858;-70
2023/12/03 07:08:04;;;;;;;10.48;4.50;;;;;;;;;;4983362;28;98792;-70
2023/12/03 07:10:31;;;;;;;11.85;4.68;;;;;;;;;;4983507;28;99239;-71
2023/12/03 07:12:57;;;;;;;9.43;4.30;;;;;;;;;;4984609;28;98506;-70
2023/12/03 07:15:23;;;;;;;11.57;4.70;;;;;;;;;;4983857;28;99354;-70
2023/12/03 07:17:50;;;;;;;9.90;4.40;;;;;;;;;;4983148;28;99924;-70
2023/12/03 07:20:18;;;;;;;10.27;4.82;;;;;;;;;;4983471;28;101063;-70
2023/12/03 07:22:44;;;;;;;10.63;5.00;;;;;;;;;;4984281;28;98498;-71
2023/12/03 07:25:11;;;;;;;10.75;4.55;;;;;;;;;;4986725;28;98916;-71
2023/12/03 07:27:37;;;;;;;9.98;4.88;;;;;;;;;;4983771;28;98630;-69
2023/12/03 07:30:05;;;;;;;10.90;5.28;;;;;;;;;;4991869;28;100054;-70
2023/12/03 07:32:32;;;;;;;10.27;4.78;;;;;;;;;;5002208;28;99230;-71
2023/12/03 07:34:59;;;;;;;11.43;4.82;;;;;;;;;;5003480;27;99101;-70
2023/12/03 07:37:25;;;;;;;11.88;4.70;;;;;;;;;;5003370;28;99468;-71
2023/12/03 07:39:52;;;;;;;11.55;4.80;;;;;;;;;;5000845;28;100088;-70
2023/12/03 07:42:18;;;;;;;12.50;4.90;;;;;;;;;;5002768;28;98567;-70
2023/12/03 07:44:46;;;;;;;11.40;5.07;;;;;;;;;;5002370;28;99580;-70
2023/12/03 07:47:13;;;;;;;12.25;4.90;;;;;;;;;;5006259;28;99608;-70
2023/12/03 07:49:40;;;;;;;10.95;4.80;;;;;;;;;;4984068;28;98797;-70
2023/12/03 07:52:07;;;;;;;;;;;;;;;;;;4985979;28;99232;-70
2023/12/03 07:54:33;;;;;;;11.65;4.55;;;;;;;;;;4987067;28;115857;-70
2023/12/03 07:57:00;;;;;;;11.32;5.05;;;;;;;;;;4986681;28;99979;-70
2023/12/03 07:59:26;;;;;;;12.43;5.28;;;;;;;;;;4986060;28;99348;-70
2023/12/03 08:01:53;;;;;;;11.52;5.20;;;;;;;;;;4986719;28;98225;-70
2023/12/03 08:04:20;;;;;;;13.48;5.32;;;;;;;;;;4986327;28;98569;-70
2023/12/03 08:06:47;;;;;;;10.98;4.68;;;;;;;;;;4986061;28;100542;-71
2023/12/03 08:09:13;;;;;;;10.23;4.78;;;;;;;;;;4989373;28;99237;-71
2023/12/03 08:11:40;;;;;;;15.65;4.57;;;;;;;;;;4984905;28;99037;-70
2023/12/03 08:14:07;;;;;;;11.93;4.93;;;;;;;;;;4986481;28;98630;-71
2023/12/03 08:16:33;;;;;;;14.48;5.35;;;;;;;;;;4985736;28;99832;-71
2023/12/03 08:19:00;;;;;;;12.85;5.50;;;;;;;;;;4999186;28;99079;-71
2023/12/03 08:21:26;;;;;;;13.48;5.15;;;;;;;;;;4988243;28;98551;-71
2023/12/03 08:23:53;;;;;;;14.05;5.65;;;;;;;;;;5005971;28;98880;-71
2023/12/03 08:26:19;;;;;;;10.65;4.50;;;;;;;;;;5006247;28;98420;-70
2023/12/03 08:28:46;;;;;;;11.98;4.95;;;;;;;;;;5006229;28;98828;-71
2023/12/03 08:31:12;;;;;;;13.38;5.28;;;;;;;;;;5008730;27;101020;-71
2023/12/03 08:33:44;;;;;;;11.52;5.10;;;;;;;;;;5004928;28;99408;-70
2023/12/03 08:36:16;;;;;;;13.63;5.90;;;;;;;;;;5005817;28;101246;-70
2023/12/03 08:38:43;;;;;;;18.08;6.38;;;;;;;;;;5005615;28;100009;-69
2023/12/03 08:41:09;;;;;;;17.00;6.28;;;;;;;;;;5005028;28;98687;-69
2023/12/03 08:43:36;;;;;;;19.02;6.40;;;;;;;;;;5003971;28;100687;-69
2023/12/03 08:46:04;;;;;;;16.85;6.13;;;;;;;;;;5002772;28;100171;-69
2023/12/03 08:48:30;;;;;;;17.02;5.50;;;;;;;;;;4966442;28;105525;-70
2023/12/03 08:50:57;;;;;;;14.50;5.80;;;;;;;;;;4984804;28;100020;-70
2023/12/03 08:53:23;;;;;;;12.88;5.75;;;;;;;;;;4987319;28;99279;-70
2023/12/03 08:55:50;;;;;;;14.27;5.55;;;;;;;;;;4983477;28;98705;-69
2023/12/03 08:58:16;;;;;;;13.98;5.57;;;;;;;;;;4983506;28;100910;-69
2023/12/03 09:00:43;;;;;;;13.00;5.75;;;;;;;;;;4995812;28;98555;-70
2023/12/03 09:03:09;;;;;;;16.20;5.97;;;;;;;;;;5004229;28;100163;-70
2023/12/03 09:05:36;;;;;;;16.45;6.38;;;;;;;;;;5003523;28;100319;-69
2023/12/03 09:08:03;;;;;;;13.02;5.82;;;;;;;;;;5004055;28;98846;-69
2023/12/03 09:10:29;;;;;;;12.57;6.05;;;;;;;;;;5002847;28;99001;-70
2023/12/03 09:12:57;;;;;;;13.13;5.68;;;;;;;;;;5007600;28;99758;-70
2023/12/03 09:15:24;;;;;;;15.43;6.05;;;;;;;;;;5003682;28;98835;-70
2023/12/03 09:17:50;;;;;;;12.23;5.60;;;;;;;;;;5003143;28;99631;-70
2023/12/03 09:20:17;;;;;;;11.60;5.85;;;;;;;;;;5004338;28;98936;-70
2023/12/03 09:22:44;;;;;;;11.23;5.25;;;;;;;;;;5003649;28;99883;-70
2023/12/03 09:25:10;;;;;;;12.43;5.63;;;;;;;;;;5002785;28;100190;-70
2023/12/03 09:27:37;;;;;;;11.98;5.40;;;;;;;;;;5003311;28;98814;-69
2023/12/03 09:30:04;;;;;;;10.70;5.15;;;;;;;;;;5003206;27;99946;-70
2023/12/03 09:32:31;;;;;;;11.30;5.55;;;;;;;;;;5004235;28;99775;-69
2023/12/03 09:34:57;;;;;;;9.73;4.97;;;;;;;;;;5006267;28;99039;-69
2023/12/03 09:37:24;;;;;;;10.50;4.82;;;;;;;;;;5003427;28;99821;-69
2023/12/03 09:39:50;;;;;;;9.38;5.07;;;;;;;;;;5002258;28;98283;-68
2023/12/03 09:42:18;;;;;;;8.63;4.70;;;;;;;;;;5003501;28;99162;-70
2023/12/03 09:44:53;;;;;;;10.55;5.03;;;;;;;;;;5001604;28;100018;-70
2023/12/03 09:47:22;;;;;;;62.70;13.65;;;;;;;;;;4982152;28;99551;-72
2023/12/03 09:49:52;;;;;;;26.95;7.55;;;;;;;;;;4982101;28;99741;-73
2023/12/03 09:52:19;;;;;;;35.30;7.35;;;;;;;;;;4983489;28;99264;-70
2023/12/03 09:54:46;;;;;;;25.60;6.20;;;;;;;;;;4983708;28;98724;-70
2023/12/03 09:57:14;;;;;;;29.02;6.20;;;;;;;;;;4987102;28;98803;-71
2023/12/03 09:59:43;;;;;;;17.70;4.93;;;;;;;;;;4982694;28;98650;-71
2023/12/03 10:02:12;;;;;;;13.35;4.78;;;;;;;;;;4983595;28;99939;-70
2023/12/03 10:04:38;;;;;;;16.65;4.97;;;;;;;;;;4998523;28;98492;-70
2023/12/03 10:07:06;;;;;;;12.75;5.00;;;;;;;;;;5003619;28;98753;-70
2023/12/03 10:09:33;;;;;;;15.00;4.55;;;;;;;;;;5003062;28;99171;-68
2023/12/03 10:12:02;;;;;;;14.23;4.72;;;;;;;;;;5001675;28;99851;-70
2023/12/03 10:14:29;;;;;;;8.75;4.13;;;;;;;;;;5001679;28;98556;-71
2023/12/03 10:16:55;;;;;;;12.52;4.50;;;;;;;;;;5003512;28;100522;-70
2023/12/03 10:19:23;;;;;;;10.18;4.57;;;;;;;;;;5005964;28;100144;-70
2023/12/03 10:21:50;;;;;;;11.65;3.70;;;;;;;;;;5002447;28;99864;-71
2023/12/03 10:24:16;;;;;;;;;;;;;;;;;;5000980;28;100276;-71
2023/12/03 10:26:50;;;;;;;10.88;3.97;;;;;;;;;;4999880;28;111765;-71
2023/12/03 10:29:19;;;;;;;9.80;3.60;;;;;;;;;;5003788;28;98741;-71
2023/12/03 10:31:49;;;;;;;10.68;3.78;;;;;;;;;;4996401;28;100193;-71
2023/12/03 10:34:17;;;;;;;11.10;3.92;;;;;;;;;;5003583;28;98958;-71
2023/12/03 10:36:43;;;;;;;10.55;3.60;;;;;;;;;;5001376;28;99698;-71
2023/12/03 10:39:16;;;;;;;16.02;3.90;;;;;;;;;;5002004;28;99229;-71
2023/12/03 10:41:47;;;;;;;10.63;3.90;;;;;;;;;;5005287;28;99367;-72
2023/12/03 10:44:17;;;;;;;7.43;3.50;;;;;;;;;;5002035;28;99338;-71
2023/12/03 10:46:44;;;;;;;8.25;3.70;;;;;;;;;;5002394;28;98867;-70
2023/12/03 10:49:12;;;;;;;8.70;4.00;;;;;;;;;;5002323;28;99947;-69
2023/12/03 10:51:43;;;;;;;9.23;3.60;;;;;;;;;;5000873;28;99490;-70
2023/12/03 10:54:13;;;;;;;9.38;3.80;;;;;;;;;;4984844;28;98269;-67
2023/12/03 10:56:40;;;;;;;8.77;3.80;;;;;;;;;;5002413;28;99142;-67
2023/12/03 10:59:10;;;;;;;9.48;3.90;;;;;;;;;;5001533;28;99307;-65
2023/12/03 11:01:48;;;;;;;10.38;3.30;;;;;;;;;;5001038;28;99370;-66
2023/12/03 11:04:20;;;;;;;9.77;3.65;;;;;;;;;;5004942;28;99723;-66
2023/12/03 11:06:48;;;;;;;9.30;3.85;;;;;;;;;;5002447;28;98916;-65
2023/12/03 11:09:15;;;;;;;8.43;3.72;;;;;;;;;;5002034;28;99784;-65
2023/12/03 11:11:42;;;;;;;9.13;3.40;;;;;;;;;;4983030;28;100170;-65
2023/12/03 11:14:08;;;;;;;9.27;3.60;;;;;;;;;;5002773;28;98920;-66
2023/12/03 11:16:58;;;;;;;8.80;3.70;;;;;;;;;;5001813;28;98915;-65
2023/12/03 11:19:25;;;;;;;10.43;3.85;;;;;;;;;;4972674;28;99732;-66
2023/12/03 11:21:58;;;;;;;8.40;3.85;;;;;;;;;;5001579;28;98942;-66
2023/12/03 11:24:48;;;;;;;6.45;1.92;;;;;;;;;;5004698;28;100012;-66
2023/12/03 11:27:15;;;;;;;8.07;2.55;;;;;;;;;;4964126;28;99702;-66
2023/12/03 11:29:41;;;;;;;;;;;;;;;;;;4985818;28;99732;-67
2023/12/03 11:32:08;;;;;;;7.20;2.80;;;;;;;;;;5000189;28;105209;-67
2023/12/03 11:34:35;;;;;;;7.43;3.10;;;;;;;;;;5005310;28;99218;-66
2023/12/03 11:37:02;;;;;;;7.97;2.70;;;;;;;;;;5005202;28;99732;-66
2023/12/03 11:39:41;;;;;;;9.65;3.50;;;;;;;;;;5004469;28;99626;-66
2023/12/03 11:42:09;;;;;;;8.85;3.50;;;;;;;;;;5003183;28;98971;-66
2023/12/03 11:44:35;;;;;;;8.82;3.10;;;;;;;;;;4985645;28;100079;-66
2023/12/03 11:47:03;;;;;;;8.70;3.30;;;;;;;;;;4988350;28;99179;-66
2023/12/03 11:49:32;;;;;;;8.30;3.47;;;;;;;;;;4997459;28;99301;-66
2023/12/03 11:51:59;;;;;;;8.73;3.35;;;;;;;;;;5004164;28;104349;-66
2023/12/03 11:54:49;;;;;;;9.52;3.42;;;;;;;;;;5005901;28;99114;-67
2023/12/03 11:57:16;;;;;;;8.57;3.15;;;;;;;;;;5005352;28;99806;-67
2023/12/03 11:59:43;;;;;;;8.73;3.30;;;;;;;;;;5003950;28;99275;-67
2023/12/03 12:02:10;;;;;;;8.90;3.10;;;;;;;;;;5005709;28;98840;-67
2023/12/03 12:04:37;;;;;;;;;;;;;;;;;;5006112;28;98896;-67
2023/12/03 12:07:14;;;;;;;8.27;3.15;;;;;;;;;;5006916;28;99417;-67
2023/12/03 12:09:41;;;;;;;8.63;3.80;;;;;;;;;;5008659;28;98116;-67
2023/12/03 12:12:08;;;;;;;10.80;3.50;;;;;;;;;;5004415;28;100458;-67
2023/12/03 12:14:34;;;;;;;8.32;3.42;;;;;;;;;;5004733;28;98731;-68
2023/12/03 12:17:02;;;;;;;8.43;3.85;;;;;;;;;;5004594;28;99717;-68
2023/12/03 12:19:29;;;;;;;8.00;3.47;;;;;;;;;;5004353;28;99157;-68
2023/12/03 12:21:56;;;;;;;7.53;3.42;;;;;;;;;;5004566;28;99148;-68
2023/12/03 12:24:23;;;;;;;9.00;3.33;;;;;;;;;;5004899;28;99997;-68
2023/12/03 12:26:50;;;;;;;8.77;4.00;;;;;;;;;;5004899;28;99741;-68
2023/12/03 12:29:18;;;;;;;9.52;3.15;;;;;;;;;;5004865;28;98500;-68
2023/12/03 12:31:45;;;;;;;7.95;3.33;;;;;;;;;;5006735;28;99463;-68
2023/12/03 12:34:12;;;;;;;8.55;3.83;;;;;;;;;;5005788;28;98274;-68
2023/12/03 12:36:40;;;;;;;7.20;3.40;;;;;;;;;;5004042;27;99704;-68
2023/12/03 12:39:07;;;;;;;7.38;3.33;;;;;;;;;;5003974;27;99198;-68
2023/12/03 12:41:37;;;;;;;8.55;3.78;;;;;;;;;;4994654;28;99278;-67
2023/12/03 12:44:04;;;;;;;7.70;3.78;;;;;;;;;;4985192;28;100815;-68
2023/12/03 12:46:31;;;;;;;8.20;3.63;;;;;;;;;;4985176;28;100253;-68
2023/12/03 12:49:16;;;;;;;9.32;4.03;;;;;;;;;;4985823;28;99003;-67
2023/12/03 12:51:43;;;;;;;;;;;;;;;;;;4984418;28;100049;-67
2023/12/03 12:54:09;;;;;;;8.00;3.33;;;;;;;;;;4988439;28;121882;-67
2023/12/03 12:56:36;;;;;;;8.38;3.50;;;;;;;;;;4985296;28;99112;-67
2023/12/03 12:59:03;;;;;;;7.53;3.42;;;;;;;;;;4984887;28;99501;-67
2023/12/03 13:01:30;;;;;;;8.68;3.75;;;;;;;;;;4984622;28;98520;-68
2023/12/03 13:03:57;;;;;;;9.20;3.63;;;;;;;;;;4984692;28;103417;-67
2023/12/03 13:06:24;;;;;;;7.40;3.55;;;;;;;;;;4983789;28;100666;-68
2023/12/03 13:08:50;;;;;;;8.65;4.20;;;;;;;;;;4984460;28;98891;-68
2023/12/03 13:11:17;;;;;;;8.52;3.55;;;;;;;;;;4982658;28;98863;-68
2023/12/03 13:13:43;;;;;;;9.63;3.80;;;;;;;;;;4983320;28;100162;-69
2023/12/03 13:16:10;;;;;;;9.15;4.10;;;;;;;;;;4986448;28;98873;-69
2023/12/03 13:18:38;;;;;;;9.13;3.90;;;;;;;;;;4984026;28;100099;-69
2023/12/03 13:21:05;;;;;;;8.48;3.90;;;;;;;;;;4983718;28;98672;-67
2023/12/03 13:23:33;;;;;;;8.40;3.90;;;;;;;;;;4983914;28;98674;-66
2023/12/03 13:25:59;;;;;;;8.55;3.70;;;;;;;;;;4983428;28;100638;-67
2023/12/03 13:28:26;;;;;;;11.45;3.95;;;;;;;;;;5003243;28;98727;-66
2023/12/03 13:30:52;;;;;;;9.45;4.35;;;;;;;;;;5003518;28;100064;-67
2023/12/03 13:33:19;;;;;;;9.00;3.88;;;;;;;;;;5002953;28;100453;-67
2023/12/03 13:35:46;;;;;;;9.00;3.95;;;;;;;;;;5006637;28;98903;-67
2023/12/03 13:38:13;;;;;;;17.98;4.70;;;;;;;;;;5002819;28;101480;-68
2023/12/03 13:40:39;;;;;;;10.63;4.00;;;;;;;;;;4989935;28;98615;-67
2023/12/03 13:43:06;;;;;;;8.90;3.50;;;;;;;;;;4984313;28;99591;-68
2023/12/03 13:45:32;;;;;;;9.93;3.42;;;;;;;;;;4982900;28;99165;-67
2023/12/03 13:47:59;;;;;;;8.63;3.45;;;;;;;;;;4984123;28;98061;-67
2023/12/03 13:50:26;;;;;;;8.00;3.60;;;;;;;;;;4982996;28;102507;-67
2023/12/03 13:52:53;;;;;;;8.48;3.60;;;;;;;;;;4983202;28;100243;-68
2023/12/03 13:55:19;;;;;;;8.48;3.38;;;;;;;;;;4983023;28;99833;-68
2023/12/03 13:57:46;;;;;;;9.13;3.60;;;;;;;;;;4986523;28;99509;-68
2023/12/03 14:00:13;;;;;;;9.15;3.40;;;;;;;;;;4983271;28;99071;-67
2023/12/03 14:02:40;;;;;;;8.18;3.70;;;;;;;;;;4983600;28;98803;-67
2023/12/03 14:05:08;;;;;;;7.55;3.42;;;;;;;;;;4982570;28;100069;-67
2023/12/03 14:07:52;;;;;;;6.85;3.28;;;;;;;;;;4982666;28;98862;-68
2023/12/03 14:10:20;;;;;;;7.40;3.30;;;;;;;;;;4983517;28;98731;-67
2023/12/03 14:12:47;;;;;;;8.73;3.60;;;;;;;;;;4984097;28;98557;-67
2023/12/03 14:15:14;;;;;;;7.45;3.13;;;;;;;;;;4998978;28;98869;-67
2023/12/03 14:17:41;;;;;;;7.38;3.05;;;;;;;;;;4998907;28;101025;-67
2023/12/03 14:20:08;;;;;;;8.30;3.33;;;;;;;;;;5005120;28;100525;-67
2023/12/03 14:22:36;;;;;;;9.13;3.63;;;;;;;;;;5002645;28;100807;-67
2023/12/03 14:25:02;;;;;;;7.78;3.72;;;;;;;;;;5000184;28;99914;-67
2023/12/03 14:27:29;;;;;;;8.68;3.63;;;;;;;;;;5003399;28;98786;-66
2023/12/03 14:29:55;;;;;;;8.23;3.75;;;;;;;;;;5002754;28;105875;-67
2023/12/03 14:32:22;;;;;;;7.32;3.35;;;;;;;;;;5002353;28;99044;-67
2023/12/03 14:34:48;;;;;;;7.28;3.28;;;;;;;;;;5002585;28;98962;-67